createdAt,value
2019-04-25T00:01:28.906Z,59.70
2019-04-25T00:03:57.483Z,59.80
2019-04-25T00:06:25.764Z,59.90
2019-04-25T00:08:54.034Z,60.10
2019-04-25T00:11:22.874Z,60.00
2019-04-25T00:13:49.319Z,60.30
2019-04-25T00:16:18.044Z,60.50
2019-04-25T00:18:44.450Z,60.40
2019-04-25T00:21:23.047Z,60.70
2019-04-25T00:23:51.571Z,60.80
2019-04-25T00:26:28.461Z,60.90
2019-04-25T00:28:55.093Z,61.10
2019-04-25T00:31:23.173Z,61.40
2019-04-25T00:33:49.619Z,61.30
2019-04-25T00:36:15.872Z,61.30
2019-04-25T00:38:46.219Z,61.40
2019-04-25T00:41:11.605Z,61.60
2019-04-25T00:43:41.309Z,61.70
2019-04-25T00:46:06.342Z,61.80
2019-04-25T00:48:33.068Z,61.90
2019-04-25T00:51:01.736Z,62.00
2019-04-25T00:53:28.251Z,62.00
2019-04-25T00:55:56.454Z,61.90
2019-04-25T00:58:33.727Z,62.30
2019-04-25T01:01:02.528Z,62.50
2019-04-25T01:03:31.716Z,62.50
2019-04-25T01:05:58.413Z,62.60
2019-04-25T01:08:25.043Z,63.00
2019-04-25T01:10:52.310Z,63.20
2019-04-25T01:13:19.738Z,63.20
2019-04-25T01:15:46.411Z,63.40
2019-04-25T01:18:13.799Z,63.40
2019-04-25T01:20:40.376Z,63.40
2019-04-25T01:23:06.943Z,63.50
2019-04-25T01:25:42.258Z,63.40
2019-04-25T01:28:03.207Z,63.40
2019-04-25T01:30:30.253Z,63.50
2019-04-25T01:32:56.846Z,63.60
2019-04-25T01:35:43.088Z,63.50
2019-04-25T01:38:20.868Z,63.50
2019-04-25T01:40:53.389Z,63.80
2019-04-25T01:43:37.536Z,63.90
2019-04-25T01:46:04.473Z,64.10
2019-04-25T01:48:31.015Z,63.90
2019-04-25T01:50:58.513Z,64.00
2019-04-25T01:53:25.396Z,64.20
2019-04-25T01:56:00.668Z,64.30
2019-04-25T01:58:20.524Z,64.30
2019-04-25T02:00:51.340Z,64.40
2019-04-25T02:03:18.349Z,64.80
2019-04-25T02:05:45.188Z,64.70
2019-04-25T02:08:11.698Z,65.10
2019-04-25T02:10:38.422Z,65.30
2019-04-25T02:13:07.096Z,65.40
2019-04-25T02:15:33.648Z,65.40
2019-04-25T02:18:00.620Z,65.70
2019-04-25T02:20:29.365Z,65.80
2019-04-25T02:22:56.467Z,66.10
2019-04-25T02:25:24.641Z,66.10
2019-04-25T02:27:52.734Z,66.20
2019-04-25T02:30:22.249Z,66.00
2019-04-25T02:32:48.652Z,66.00
2019-04-25T02:35:15.617Z,66.30
2019-04-25T02:37:42.146Z,66.40
2019-04-25T02:40:09.227Z,66.60
2019-04-25T02:42:35.823Z,66.70
2019-04-25T02:45:08.638Z,66.70
2019-04-25T02:47:49.126Z,67.10
2019-04-25T02:50:26.505Z,67.40
2019-04-25T02:52:56.881Z,67.40
2019-04-25T02:55:34.230Z,67.40
2019-04-25T02:57:54.118Z,67.60
2019-04-25T03:00:25.659Z,67.60
2019-04-25T03:02:54.591Z,67.80
2019-04-25T03:05:21.035Z,68.10
2019-04-25T03:07:47.756Z,68.30
2019-04-25T03:10:16.045Z,68.20
2019-04-25T03:12:44.545Z,68.70
2019-04-25T03:15:11.316Z,68.70
2019-04-25T03:17:38.038Z,68.60
2019-04-25T03:20:14.983Z,68.60
2019-04-25T03:22:41.415Z,69.20
2019-04-25T03:25:13.364Z,69.20
2019-04-25T03:27:37.265Z,69.20
2019-04-25T03:30:10.746Z,69.10
2019-04-25T03:32:35.588Z,69.20
2019-04-25T03:35:04.946Z,69.50
2019-04-25T03:37:33.040Z,69.50
2019-04-25T03:39:59.872Z,69.30
2019-04-25T03:42:26.398Z,70.10
2019-04-25T03:44:53.816Z,70.10
2019-04-25T03:47:20.685Z,70.20
2019-04-25T03:49:47.932Z,70.20
2019-04-25T03:52:14.380Z,70.30
2019-04-25T03:54:40.787Z,70.10
2019-04-25T03:57:07.512Z,70.30
2019-04-25T03:59:35.569Z,70.20
2019-04-25T04:02:03.838Z,70.60
2019-04-25T04:04:30.749Z,70.60
2019-04-25T04:06:57.351Z,70.30
2019-04-25T04:09:24.144Z,70.30
2019-04-25T04:11:51.275Z,70.30
2019-04-25T04:14:18.186Z,70.30
2019-04-25T04:17:05.073Z,70.40
2019-04-25T04:19:33.804Z,70.40
2019-04-25T04:22:03.107Z,70.30
2019-04-25T04:24:34.153Z,70.40
2019-04-25T04:27:08.542Z,70.10
2019-04-25T04:29:34.393Z,70.90
2019-04-25T04:32:00.981Z,70.20
2019-04-25T04:34:27.402Z,70.30
2019-04-25T04:36:54.173Z,70.20
2019-04-25T04:39:20.523Z,70.30
2019-04-25T04:41:47.345Z,70.10
2019-04-25T04:44:14.290Z,69.90
2019-04-25T04:46:43.901Z,70.00
2019-04-25T04:49:10.623Z,69.50
2019-04-25T04:51:36.961Z,69.80
2019-04-25T04:54:03.556Z,69.80
2019-04-25T04:56:31.076Z,69.40
2019-04-25T04:58:57.510Z,69.40
2019-04-25T05:01:25.750Z,68.70
2019-04-25T05:03:57.564Z,68.40
2019-04-25T05:06:25.816Z,67.80
2019-04-25T05:08:54.862Z,67.50
2019-04-25T05:11:23.566Z,67.40
2019-04-25T05:13:49.911Z,66.80
2019-04-25T05:16:16.583Z,66.60
2019-04-25T05:18:43.725Z,65.90
2019-04-25T05:21:11.864Z,65.70
2019-04-25T05:23:38.341Z,65.50
2019-04-25T05:26:05.010Z,65.30
2019-04-25T05:28:31.465Z,64.90
2019-04-25T05:31:14.349Z,64.90
2019-04-25T05:33:40.002Z,64.70
2019-04-25T05:36:06.428Z,64.80
2019-04-25T05:38:33.258Z,64.50
2019-04-25T05:41:01.875Z,64.30
2019-04-25T05:43:29.170Z,64.20
2019-04-25T05:45:55.720Z,64.20
2019-04-25T05:48:22.074Z,63.80
2019-04-25T05:50:48.503Z,63.70
2019-04-25T05:53:16.198Z,63.60
2019-04-25T05:55:44.131Z,63.40
2019-04-25T05:58:10.815Z,63.30
2019-04-25T06:00:37.737Z,63.10
2019-04-25T06:03:05.184Z,62.90
2019-04-25T06:05:33.401Z,62.90
2019-04-25T06:08:01.285Z,62.50
2019-04-25T06:10:47.862Z,62.50
2019-04-25T06:13:31.175Z,62.30
2019-04-25T06:15:59.493Z,62.30
2019-04-25T06:18:30.595Z,61.80
2019-04-25T06:20:57.104Z,61.90
2019-04-25T06:23:28.940Z,61.90
2019-04-25T06:25:56.088Z,61.90
2019-04-25T06:28:24.877Z,61.70
2019-04-25T06:30:51.696Z,61.40
2019-04-25T06:33:21.213Z,61.90
2019-04-25T06:35:47.646Z,61.40
2019-04-25T06:38:14.031Z,61.30
2019-04-25T06:40:40.517Z,60.60
2019-04-25T06:43:07.338Z,60.60
2019-04-25T06:45:38.540Z,60.70
2019-04-25T06:48:25.011Z,60.20
2019-04-25T06:50:53.712Z,60.00
2019-04-25T06:53:20.688Z,60.00
2019-04-25T06:55:47.148Z,60.00
2019-04-25T06:58:14.655Z,59.90
2019-04-25T07:00:55.817Z,59.90
2019-04-25T07:03:09.927Z,59.90
2019-04-25T07:05:40.443Z,59.70
2019-04-25T07:08:04.838Z,59.60
2019-04-25T07:10:33.659Z,59.60
2019-04-25T07:12:59.508Z,59.30
2019-04-25T07:15:26.939Z,59.40
2019-04-25T07:17:54.640Z,59.30
2019-04-25T07:20:25.694Z,59.10
2019-04-25T07:22:53.668Z,58.80
2019-04-25T07:25:26.359Z,58.30
2019-04-25T07:27:59.758Z,58.00
2019-04-25T07:30:50.131Z,57.90
2019-04-25T07:33:23.319Z,57.80
2019-04-25T07:35:51.041Z,58.50
2019-04-25T07:38:17.571Z,57.80
2019-04-25T07:40:45.115Z,57.60
2019-04-25T07:43:13.322Z,57.50
2019-04-25T07:45:40.015Z,57.40
2019-04-25T07:48:06.580Z,57.40
2019-04-25T07:50:35.339Z,57.30
2019-04-25T07:53:01.470Z,57.00
2019-04-25T07:55:27.828Z,56.70
2019-04-25T07:57:54.256Z,56.60
2019-04-25T08:00:24.025Z,56.30
2019-04-25T08:02:50.934Z,56.30
2019-04-25T08:05:18.997Z,56.00
2019-04-25T08:07:45.937Z,55.80
2019-04-25T08:10:15.489Z,55.80
2019-04-25T08:12:44.445Z,55.70
2019-04-25T08:15:13.912Z,55.10
2019-04-25T08:17:59.125Z,54.90
2019-04-25T08:20:29.104Z,54.60
2019-04-25T08:22:59.342Z,54.40
2019-04-25T08:25:26.082Z,53.90
2019-04-25T08:27:53.569Z,54.20
2019-04-25T08:30:21.955Z,53.70
2019-04-25T08:32:48.489Z,52.90
2019-04-25T08:35:16.099Z,52.70
2019-04-25T08:37:44.080Z,52.30
2019-04-25T08:40:13.604Z,52.10
2019-04-25T08:42:40.567Z,52.30
2019-04-25T08:45:09.312Z,51.70
2019-04-25T08:47:36.162Z,51.10
2019-04-25T08:50:24.629Z,50.70
2019-04-25T08:52:40.090Z,49.80
2019-04-25T08:55:09.198Z,49.50
2019-04-25T08:57:49.422Z,49.10
2019-04-25T09:00:22.097Z,48.70
2019-04-25T09:02:54.425Z,48.40
2019-04-25T09:05:25.487Z,48.50
2019-04-25T09:07:52.026Z,47.40
2019-04-25T09:10:18.620Z,47.40
2019-04-25T09:12:45.412Z,47.30
2019-04-25T09:15:14.073Z,46.00
2019-04-25T09:17:41.391Z,46.10
2019-04-25T09:20:08.443Z,46.00
2019-04-25T09:22:36.467Z,45.60
2019-04-25T09:25:08.885Z,45.40
2019-04-25T09:27:39.259Z,44.60
2019-04-25T09:30:06.409Z,44.10
2019-04-25T09:32:33.829Z,44.60
2019-04-25T09:35:03.730Z,43.50
2019-04-25T09:37:29.761Z,43.70
2019-04-25T09:40:15.760Z,43.90
2019-04-25T09:42:45.125Z,42.40
2019-04-25T09:45:24.735Z,41.80
2019-04-25T09:47:54.473Z,41.90
2019-04-25T09:50:25.960Z,41.70
2019-04-25T09:52:53.937Z,41.50
2019-04-25T09:55:31.537Z,41.40
2019-04-25T09:58:04.075Z,41.50
2019-04-25T10:00:33.423Z,40.90
2019-04-25T10:03:00.945Z,41.10
2019-04-25T10:05:28.314Z,40.90
2019-04-25T10:07:55.700Z,41.20
2019-04-25T10:10:24.098Z,40.70
2019-04-25T10:12:50.640Z,40.40
2019-04-25T10:15:37.723Z,39.70
2019-04-25T10:18:04.407Z,39.40
2019-04-25T10:20:31.084Z,40.00
2019-04-25T10:22:57.475Z,40.00
2019-04-25T10:25:24.137Z,39.90
2019-04-25T10:27:53.808Z,39.40
2019-04-25T10:30:23.572Z,39.60
2019-04-25T10:32:49.710Z,39.50
2019-04-25T10:35:16.316Z,38.90
2019-04-25T10:37:43.718Z,38.70
2019-04-25T10:40:13.409Z,38.10
2019-04-25T10:42:40.674Z,37.60
2019-04-25T10:45:20.392Z,37.90
2019-04-25T10:47:37.970Z,37.50
2019-04-25T10:50:06.738Z,37.80
2019-04-25T10:52:33.845Z,37.10
2019-04-25T10:55:00.570Z,37.00
2019-04-25T10:57:27.442Z,36.60
2019-04-25T11:00:05.101Z,36.10
2019-04-25T11:02:23.581Z,36.40
2019-04-25T11:04:54.517Z,34.90
2019-04-25T11:07:21.324Z,34.70
2019-04-25T11:09:49.148Z,34.80
2019-04-25T11:12:16.019Z,35.00
2019-04-25T11:14:43.049Z,34.60
2019-04-25T11:17:10.123Z,34.80
2019-04-25T11:19:37.341Z,34.50
2019-04-25T11:22:05.223Z,33.00
2019-04-25T11:24:34.277Z,32.20
2019-04-25T11:27:01.636Z,31.80
2019-04-25T11:29:28.676Z,31.60
2019-04-25T11:31:55.803Z,30.30
2019-04-25T11:34:23.384Z,30.40
2019-04-25T11:36:50.706Z,29.40
2019-04-25T11:39:25.271Z,27.90
2019-04-25T11:41:51.811Z,27.10
2019-04-25T11:44:18.763Z,26.90
2019-04-25T11:46:45.788Z,29.20
2019-04-25T11:49:15.290Z,28.40
2019-04-25T11:51:44.842Z,27.10
2019-04-25T11:54:10.665Z,25.50
2019-04-25T11:56:37.783Z,25.50
2019-04-25T11:59:04.627Z,25.50
2019-04-25T12:01:31.088Z,26.30
2019-04-25T12:03:57.523Z,26.50
2019-04-25T12:06:24.444Z,25.60
2019-04-25T12:08:51.538Z,25.30
2019-04-25T12:11:18.150Z,26.10
2019-04-25T12:13:46.916Z,26.60
2019-04-25T12:16:14.496Z,25.60
2019-04-25T12:18:43.504Z,25.40
2019-04-25T12:21:10.827Z,26.40
2019-04-25T12:23:37.367Z,26.10
2019-04-25T12:26:03.994Z,25.20
2019-04-25T12:28:30.663Z,25.50
2019-04-25T12:30:57.635Z,26.00
2019-04-25T12:33:24.391Z,26.90
2019-04-25T12:35:50.713Z,28.10
2019-04-25T12:38:20.274Z,27.70
2019-04-25T12:40:46.966Z,27.00
2019-04-25T12:43:14.200Z,26.50
2019-04-25T12:45:43.380Z,26.70
2019-04-25T12:48:12.033Z,27.00
2019-04-25T12:50:39.524Z,29.00
2019-04-25T12:53:06.281Z,27.80
2019-04-25T12:55:34.186Z,27.10
2019-04-25T12:58:03.426Z,25.70
2019-04-25T13:00:30.628Z,25.40
2019-04-25T13:02:57.175Z,25.20
2019-04-25T13:05:24.440Z,25.20
2019-04-25T13:07:51.472Z,24.90
2019-04-25T13:10:19.482Z,24.70
2019-04-25T13:12:46.053Z,25.00
2019-04-25T13:15:13.834Z,24.80
2019-04-25T13:17:40.522Z,25.40
2019-04-25T13:20:08.687Z,25.70
2019-04-25T13:22:35.538Z,26.30
2019-04-25T13:25:05.682Z,25.90
2019-04-25T13:27:35.941Z,26.50
2019-04-25T13:30:11.854Z,28.30
2019-04-25T13:32:43.452Z,29.20
2019-04-25T13:35:17.872Z,29.00
2019-04-25T13:37:44.406Z,28.90
2019-04-25T13:40:11.462Z,30.00
2019-04-25T13:42:38.259Z,30.50
2019-04-25T13:45:06.447Z,29.80
2019-04-25T13:47:32.947Z,28.30
2019-04-25T13:49:59.503Z,27.70
2019-04-25T13:52:26.517Z,26.60
2019-04-25T13:54:53.887Z,25.90
2019-04-25T13:57:20.758Z,27.80
2019-04-25T13:59:48.293Z,28.70
2019-04-25T14:02:15.363Z,29.70
2019-04-25T14:04:44.119Z,29.20
2019-04-25T14:07:11.543Z,27.50
2019-04-25T14:09:37.898Z,27.60
2019-04-25T14:12:05.683Z,27.30
2019-04-25T14:14:34.000Z,28.60
2019-04-25T14:17:04.970Z,29.30
2019-04-25T14:19:36.125Z,29.60
2019-04-25T14:22:05.054Z,30.10
2019-04-25T14:24:32.288Z,30.10
2019-04-25T14:27:00.279Z,29.60
2019-04-25T14:29:26.821Z,29.80
2019-04-25T14:31:53.713Z,29.50
2019-04-25T14:34:20.894Z,30.50
2019-04-25T14:36:49.499Z,32.00
2019-04-25T14:39:16.974Z,32.80
2019-04-25T14:41:43.525Z,33.20
2019-04-25T14:44:10.086Z,33.70
2019-04-25T14:46:37.820Z,33.70
2019-04-25T14:49:04.657Z,33.30
2019-04-25T14:51:31.407Z,33.40
2019-04-25T14:53:59.555Z,33.00
2019-04-25T14:56:34.855Z,34.30
2019-04-25T14:59:01.454Z,33.90
2019-04-25T15:01:28.131Z,33.90
2019-04-25T15:03:55.298Z,34.90
2019-04-25T15:06:22.146Z,35.20
2019-04-25T15:08:48.683Z,36.60
2019-04-25T15:11:15.429Z,36.30
2019-04-25T15:13:43.266Z,36.20
2019-04-25T15:16:09.693Z,34.90
2019-04-25T15:18:46.142Z,34.70
2019-04-25T15:21:05.471Z,34.90
2019-04-25T15:23:32.122Z,35.40
2019-04-25T15:25:58.577Z,34.90
2019-04-25T15:28:25.306Z,34.70
2019-04-25T15:30:53.233Z,34.70
2019-04-25T15:33:20.288Z,34.80
2019-04-25T15:35:57.555Z,35.00
2019-04-25T15:38:25.852Z,35.70
2019-04-25T15:41:12.078Z,36.90
2019-04-25T15:43:43.367Z,36.90
2019-04-25T15:46:18.260Z,36.60
2019-04-25T15:48:46.070Z,36.60
2019-04-25T15:51:12.581Z,36.30
2019-04-25T15:53:40.238Z,36.10
2019-04-25T15:56:07.075Z,35.90
2019-04-25T15:58:34.124Z,35.80
2019-04-25T16:01:01.189Z,35.90
2019-04-25T16:03:28.341Z,35.90
2019-04-25T16:05:54.943Z,36.00
2019-04-25T16:08:21.485Z,36.00
2019-04-25T16:10:48.121Z,35.80
2019-04-25T16:13:14.674Z,36.10
2019-04-25T16:15:41.448Z,35.80
2019-04-25T16:18:08.656Z,35.70
2019-04-25T16:20:35.749Z,35.20
2019-04-25T16:23:05.427Z,34.80
2019-04-25T16:25:31.825Z,34.70
2019-04-25T16:27:59.309Z,34.90
2019-04-25T16:30:28.426Z,35.10
2019-04-25T16:32:56.981Z,34.60
2019-04-25T16:35:23.597Z,34.50
2019-04-25T16:37:50.247Z,33.90
2019-04-25T16:40:17.275Z,33.80
2019-04-25T16:42:43.808Z,34.40
2019-04-25T16:45:11.279Z,34.40
2019-04-25T16:47:38.295Z,34.30
2019-04-25T16:50:05.549Z,34.40
2019-04-25T16:52:32.614Z,34.40
2019-04-25T16:54:59.155Z,34.60
2019-04-25T16:57:25.792Z,34.70
2019-04-25T16:59:52.993Z,34.90
2019-04-25T17:02:32.206Z,35.10
2019-04-25T17:04:49.031Z,35.20
2019-04-25T17:07:15.692Z,35.30
2019-04-25T17:09:42.834Z,35.50
2019-04-25T17:12:11.512Z,35.70
2019-04-25T17:14:40.342Z,36.00
2019-04-25T17:17:23.774Z,36.20
2019-04-25T17:19:55.849Z,36.60
2019-04-25T17:22:23.675Z,36.90
2019-04-25T17:24:50.223Z,37.20
2019-04-25T17:27:17.289Z,37.50
2019-04-25T17:29:43.867Z,37.70
2019-04-25T17:32:12.717Z,38.00
2019-04-25T17:34:41.066Z,38.50
2019-04-25T17:37:15.514Z,38.90
2019-04-25T17:39:54.122Z,39.20
2019-04-25T17:42:20.647Z,39.60
2019-04-25T17:44:47.162Z,39.80
2019-04-25T17:47:13.742Z,40.10
2019-04-25T17:49:40.222Z,40.40
2019-04-25T17:52:07.174Z,40.90
2019-04-25T17:54:34.353Z,41.20
2019-04-25T17:57:00.796Z,41.60
2019-04-25T17:59:27.457Z,42.10
2019-04-25T18:01:54.093Z,42.40
2019-04-25T18:04:20.527Z,43.10
2019-04-25T18:06:46.976Z,44.10
2019-04-25T18:09:13.547Z,44.30
2019-04-25T18:11:40.195Z,44.70
2019-04-25T18:14:06.917Z,44.80
2019-04-25T18:16:38.140Z,45.10
2019-04-25T18:19:27.445Z,45.20
2019-04-25T18:21:55.786Z,45.60
2019-04-25T18:24:41.195Z,46.20
2019-04-25T18:27:12.907Z,46.60
2019-04-25T18:29:39.528Z,47.50
2019-04-25T18:32:06.422Z,47.70
2019-04-25T18:34:37.512Z,48.10
2019-04-25T18:37:22.629Z,48.50
2019-04-25T18:39:54.827Z,49.10
2019-04-25T18:42:26.167Z,49.30
2019-04-25T18:44:53.242Z,49.80
2019-04-25T18:47:20.214Z,50.20
2019-04-25T18:49:46.820Z,50.70
2019-04-25T18:52:15.375Z,51.00
2019-04-25T18:54:56.985Z,51.10
2019-04-25T18:57:28.259Z,51.70
2019-04-25T18:59:59.309Z,52.10
2019-04-25T19:02:42.551Z,52.20
2019-04-25T19:05:11.147Z,52.40
2019-04-25T19:07:38.640Z,53.30
2019-04-25T19:10:08.756Z,53.50
2019-04-25T19:12:35.227Z,53.90
2019-04-25T19:15:02.244Z,54.20
2019-04-25T19:17:28.846Z,54.20
2019-04-25T19:19:55.762Z,54.80
2019-04-25T19:22:22.391Z,54.90
2019-04-25T19:24:48.909Z,55.00
2019-04-25T19:27:23.502Z,54.80
2019-04-25T19:29:44.133Z,55.70
2019-04-25T19:32:10.807Z,56.30
2019-04-25T19:34:37.277Z,57.10
2019-04-25T19:37:05.293Z,57.40
2019-04-25T19:39:33.725Z,57.10
2019-04-25T19:42:19.179Z,57.60
2019-04-25T19:44:47.105Z,57.90
2019-04-25T19:47:13.881Z,57.70
2019-04-25T19:49:40.639Z,58.30
2019-04-25T19:52:08.287Z,58.30
2019-04-25T19:54:34.924Z,58.50
2019-04-25T19:57:01.601Z,58.80
2019-04-25T19:59:28.409Z,58.60
2019-04-25T20:01:58.396Z,58.40
2019-04-25T20:04:36.609Z,58.50
2019-04-25T20:07:07.584Z,58.60
2019-04-25T20:09:38.820Z,59.50
2019-04-25T20:12:05.363Z,59.50
2019-04-25T20:14:31.806Z,59.80
2019-04-25T20:16:58.387Z,60.10
2019-04-25T20:19:24.745Z,59.90
2019-04-25T20:21:52.114Z,60.60
2019-04-25T20:24:18.846Z,60.60
2019-04-25T20:26:46.334Z,60.90
2019-04-25T20:29:13.278Z,60.80
2019-04-25T20:31:41.364Z,60.70
2019-04-25T20:34:09.072Z,61.10
2019-04-25T20:36:35.490Z,61.50
2019-04-25T20:39:02.826Z,61.50
2019-04-25T20:41:29.263Z,61.60
2019-04-25T20:43:55.623Z,61.70
2019-04-25T20:46:22.442Z,61.80
2019-04-25T20:48:50.123Z,61.60
2019-04-25T20:51:17.171Z,61.60
2019-04-25T20:53:43.643Z,61.90
2019-04-25T20:56:10.683Z,62.30
2019-04-25T20:58:37.117Z,62.70
2019-04-25T21:01:03.744Z,62.40
2019-04-25T21:03:30.317Z,62.60
2019-04-25T21:05:59.128Z,63.00
2019-04-25T21:08:25.543Z,62.90
2019-04-25T21:10:52.453Z,63.30
2019-04-25T21:13:20.804Z,63.20
2019-04-25T21:15:49.594Z,63.50
2019-04-25T21:18:19.464Z,63.80
2019-04-25T21:20:45.950Z,64.10
2019-04-25T21:23:12.399Z,64.10
2019-04-25T21:25:39.106Z,64.50
2019-04-25T21:28:05.868Z,64.50
2019-04-25T21:30:32.402Z,64.70
2019-04-25T21:32:59.546Z,65.30
2019-04-25T21:35:26.615Z,64.80
2019-04-25T21:37:53.543Z,65.10
2019-04-25T21:40:22.496Z,65.10
2019-04-25T21:42:51.576Z,65.60
2019-04-25T21:45:19.435Z,65.80
2019-04-25T21:47:46.285Z,65.30
2019-04-25T21:50:14.013Z,65.20
2019-04-25T21:52:41.307Z,65.50
2019-04-25T21:55:08.514Z,65.80
2019-04-25T21:57:35.303Z,66.00
2019-04-25T22:00:11.138Z,66.20
2019-04-25T22:02:38.893Z,66.20
2019-04-25T22:05:06.440Z,66.30
2019-04-25T22:07:33.478Z,66.40
2019-04-25T22:10:00.508Z,66.40
2019-04-25T22:12:27.069Z,66.60
2019-04-25T22:14:55.130Z,66.70
2019-04-25T22:17:22.291Z,67.00
2019-04-25T22:19:49.850Z,67.10
2019-04-25T22:22:16.731Z,67.20
2019-04-25T22:24:43.490Z,67.60
2019-04-25T22:27:12.352Z,67.60
2019-04-25T22:29:41.139Z,67.40
2019-04-25T22:32:12.143Z,67.40
2019-04-25T22:34:51.738Z,67.30
2019-04-25T22:37:09.164Z,67.20
2019-04-25T22:39:36.506Z,67.40
2019-04-25T22:42:04.917Z,67.70
2019-04-25T22:44:33.889Z,67.70
2019-04-25T22:47:00.934Z,68.00
2019-04-25T22:49:27.595Z,68.00
2019-04-25T22:54:30.157Z,68.20
2019-04-25T22:56:56.466Z,67.90
2019-04-25T22:59:24.708Z,67.80
2019-04-25T23:01:59.154Z,67.60
2019-04-25T23:04:40.172Z,67.50
2019-04-25T23:07:06.711Z,67.80
2019-04-25T23:09:35.020Z,67.80
2019-04-25T23:12:02.093Z,68.60
2019-04-25T23:14:28.774Z,69.00
2019-04-25T23:16:55.241Z,69.20
2019-04-25T23:19:21.614Z,69.50
2019-04-25T23:21:48.858Z,69.50
2019-04-25T23:24:18.324Z,69.30
2019-04-25T23:27:02.443Z,69.10
2019-04-25T23:29:29.042Z,69.00
2019-04-25T23:31:55.579Z,69.20
2019-04-25T23:34:22.556Z,69.30
2019-04-25T23:36:48.936Z,69.40
2019-04-25T23:39:15.509Z,69.10
2019-04-25T23:41:41.928Z,68.80
2019-04-25T23:44:08.361Z,68.60
2019-04-25T23:46:35.123Z,68.30
2019-04-25T23:49:02.249Z,68.40
2019-04-25T23:51:28.751Z,68.30
2019-04-25T23:53:56.037Z,68.30
2019-04-25T23:56:22.464Z,68.40
2019-04-25T23:58:49.544Z,68.60
